Terminal Aerodrome Forecast
Issued by NWS

Home | Current Version | Previous Version | Graphics & Text | Print | Product List | Glossary On
Versions: 1 2 3 4 5 6 7 8 9 10 11 12 13 14 15 16 17 18 19 20 21 22 23 24 25 26 27 28 29 30 31 32 33 34 35 36 37 38 39 40 41 42 43 44 45 46 47 48 49 50
851
FTUS43 KLOT 191745
TAFGYY
TAF
KGYY 191745Z 1918/2018 VRB03KT P6SM FEW250
     FM200000 10005KT P6SM SCT250
     FM201000 13004KT 3SM BR SCT006 BKN250
      TEMPO 2012/2015 1/2SM FG SCT003 OVC007
     FM201600 16012KT P6SM SCT007 BKN035 OVC250=

USA.gov is the U.S. government's official web portal to all federal, state and local government web resources and services.